Airfield :







YOU CAN JOIN US ON...

 
LOGIN :

Register | Disclaimer

   EN    FR    IT 

 









Legend :    VFR   Marginal VFR   IFR   Intensive IFR   Very Intensive IFR
Visi :
Ceiling :
>= 8 km
>= 3000ft
5 to 8 km
1000 to 3000 ft
1500m to 5 km
500 to 1000 ft
800 to 1500m
200 to 500 ft
< 800m
< 200 ft
Symbols :   Thunderstorms  Fog  Heavy snow  Heavy precipitations  Wind > 20 kt







- Airport Elevation : 175 ft
- IATA code : YLC


CYLC - Kimmirut

CURRENT METAR :
  • 191500Z VRB02KT 6SM IC FEW014 BKN019 M22/M26 A2969 RMK ST2SC4 SLP062

EXPIRED METARs :
  • 191400Z 00000KT 10SM IC SCT030 BKN038 M23/M27 A2970 RMK SC3SC4 SLP068
  • 191300Z VRB02KT 6SM IC FEW030 BKN036 BKN044 M24/M28 A2972 RMK SC2SC3SC2 SLP073

TAF N/A
CZUL FIR / North America



MET'MAP, your aeronautical weather chart ! - Copyright ORBIFLY December 2007 - Disclaimer

ORBIFLY MET'MAP TEAM :

Programming & Development : Alexandra Zaïnal
Concept & Development : Baudouin d'Aumeries
Co-Development & Prog : Marc-Olivier Méhu
Technical & hardware support : Manuel Goepfert

Contact : metmap@orbifly.com




SOURCES & CREDITS :

   NOAA